This is the latest recevied weather packets stored in our database for station/object K3BAY-1. If no packets are shown the sender has not sent any weather packets the latest 10 day(s).
| Time | Temp. | Humidity | Pressure | Rain* | Wind** | Luminosity | Snow |
|---|---|---|---|---|---|---|---|
| 1777922163 | 23.89° C | 37% | 1014.2 hPa | 0 mm | - | 594 W/m² | - |
| 1777921858 | 23.89° C | 36% | 1013.9 hPa | 0 mm | - | 649 W/m² | - |
| 1777921554 | 23.33° C | 37% | 1014.2 hPa | 0 mm | - | 638 W/m² | - |
| 1777921250 | 22.78° C | 38% | 1014.2 hPa | 0 mm | - | 634 W/m² | - |
| 1777920948 | 23.33° C | 36% | 1013.9 hPa | 0 mm | - | 672 W/m² | - |
| 1777920644 | 22.78° C | 38% | 1014.2 hPa | 0 mm | - | 669 W/m² | - |
| 1777920340 | 22.78° C | 37% | 1014.2 hPa | 0 mm | - | 642 W/m² | - |
| 1777920035 | 22.78° C | 37% | 1014.2 hPa | 0 mm | - | 664 W/m² | - |
| 1777919733 | 22.78° C | 37% | 1014.2 hPa | 0 mm | - | 661 W/m² | - |
| 1777919431 | 23.33° C | 36% | 1014.2 hPa | 0 mm | - | 654 W/m² | - |
| 1777919127 | 22.78° C | 37% | 1014.2 hPa | 0 mm | - | 73 W/m² | - |
| 1777918825 | 23.33° C | 38% | 1014.6 hPa | 0 mm | - | 718 W/m² | - |
| 1777918521 | 22.78° C | 37% | 1014.6 hPa | 0 mm | - | 727 W/m² | - |
| 1777918220 | 23.89° C | 37% | 1014.6 hPa | 0 mm | - | 722 W/m² | - |
| 1777917919 | 23.33° C | 37% | 1014.6 hPa | 0 mm | - | 712 W/m² | - |
| 1777917617 | 23.33° C | 38% | 1014.6 hPa | 0 mm | - | 709 W/m² | - |
| 1777917314 | 24.44° C | 36% | 1014.6 hPa | 0 mm | - | 728 W/m² | - |
| 1777917011 | 23.89° C | 36% | 1014.6 hPa | 0 mm | - | 735 W/m² | - |
| 1777916709 | 23.33° C | 37% | 1014.6 hPa | 0 mm | - | 753 W/m² | - |
| 1777916405 | 22.78° C | 38% | 1014.6 hPa | 0 mm | - | 749 W/m² | - |
| 1777916102 | 23.33° C | 38% | 1014.6 hPa | 0 mm | - | 753 W/m² | - |
| 1777915800 | 24.44° C | 35% | 1014.6 hPa | 0 mm | - | 754 W/m² | - |
| 1777915495 | 25° C | 31% | 1014.9 hPa | 0 mm | - | 765 W/m² | - |
| 1777915192 | 25.56° C | 33% | 1014.6 hPa | 0 mm | - | 769 W/m² | - |
| 1777914889 | 25.56° C | 32% | 1014.6 hPa | 0 mm | - | 750 W/m² | - |
* Rain latest hour (hover to see other rain measurements)
** Current wind speed in m/s (hover to see current wind gust speed)